createdAt,value
2018-06-01T00:04:53.195Z,18.4
2018-06-01T00:15:12.049Z,18.4
2018-06-01T00:36:11.387Z,18.2
2018-06-01T00:46:36.972Z,18.2
2018-06-01T00:56:51.713Z,18.1
2018-06-01T01:07:06.867Z,18.1
2018-06-01T01:27:34.868Z,18.1
2018-06-01T01:37:47.179Z,18.0
2018-06-01T01:58:22.479Z,18.0
2018-06-01T02:08:36.775Z,17.9
2018-06-01T02:19:22.980Z,17.8
2018-06-01T02:29:42.592Z,17.8
2018-06-01T02:39:57.531Z,17.7
2018-06-01T02:50:14.838Z,17.7
2018-06-01T03:00:41.308Z,17.6
2018-06-01T03:11:02.999Z,17.5
2018-06-01T03:31:32.190Z,17.4
2018-06-01T03:41:46.826Z,17.4
2018-06-01T03:52:01.665Z,17.3
2018-06-01T04:02:34.479Z,17.3
2018-06-01T04:23:13.027Z,17.4
2018-06-01T04:33:35.047Z,17.5
2018-06-01T04:44:27.249Z,17.8
2018-06-01T04:54:41.520Z,17.8
2018-06-01T05:05:07.896Z,18.0
2018-06-01T05:15:38.825Z,18.3
2018-06-01T05:26:11.650Z,18.5
2018-06-01T05:36:50.414Z,18.9
2018-06-01T05:47:13.531Z,19.3
2018-06-01T05:57:41.495Z,19.7
2018-06-01T06:07:58.346Z,20.1
2018-06-01T06:18:15.333Z,20.4
2018-06-01T06:29:22.526Z,21.1
2018-06-01T06:39:53.086Z,21.1
2018-06-01T06:50:16.735Z,21.3
2018-06-01T07:00:38.777Z,21.4
2018-06-01T07:21:28.560Z,22.1
2018-06-01T07:32:23.811Z,23.2
2018-06-01T07:42:45.198Z,23.2
2018-06-01T07:53:08.563Z,23.8
2018-06-01T08:13:54.879Z,25.4
2018-06-01T08:24:30.020Z,26.6
2018-06-01T08:34:53.506Z,27.2
2018-06-01T08:45:46.747Z,26.9
2018-06-01T09:17:21.370Z,26.2
2018-06-01T09:27:36.933Z,26.2
2018-06-01T09:39:15.426Z,25.9
2018-06-01T09:49:35.636Z,25.9
2018-06-01T10:01:46.459Z,25.6
2018-06-01T10:22:31.191Z,25.5
2018-06-01T10:32:57.726Z,25.4
2018-06-01T10:43:37.289Z,25.4
2018-06-01T10:54:38.793Z,25.8
2018-06-01T11:05:06.716Z,25.8
2018-06-01T11:15:33.640Z,25.9
2018-06-01T11:26:37.970Z,25.7
2018-06-01T11:37:11.212Z,25.7
2018-06-01T11:47:26.837Z,25.6
2018-06-01T12:08:42.536Z,25.9
2018-06-01T12:19:53.893Z,27.2
2018-06-01T12:30:20.807Z,27.2
2018-06-01T12:40:55.117Z,28.2
